createdAt,value
2023-03-16T00:00:31.976Z,11.75
2023-03-16T00:02:59.500Z,10.43
2023-03-16T00:05:28.506Z,8.15
2023-03-16T00:07:55.947Z,7.95
2023-03-16T00:10:27.382Z,12.48
2023-03-16T00:12:55.376Z,11.30
2023-03-16T00:15:23.351Z,11.73
2023-03-16T00:17:50.806Z,11.30
2023-03-16T00:20:19.355Z,11.10
2023-03-16T00:22:48.236Z,16.27
2023-03-16T00:25:17.088Z,12.10
2023-03-16T00:27:44.543Z,9.13
2023-03-16T00:30:13.200Z,10.85
2023-03-16T00:32:41.756Z,8.68
2023-03-16T00:35:10.078Z,14.13
2023-03-16T00:37:39.347Z,14.43
2023-03-16T00:40:13.637Z,12.98
2023-03-16T00:42:41.459Z,8.55
2023-03-16T00:45:10.516Z,11.75
2023-03-16T00:47:37.984Z,12.25
2023-03-16T00:50:06.087Z,13.98
2023-03-16T00:52:35.327Z,11.00
2023-03-16T00:55:04.857Z,11.32
2023-03-16T00:57:33.662Z,12.43
2023-03-16T01:00:05.241Z,10.43
2023-03-16T01:02:32.727Z,11.20
2023-03-16T01:05:00.137Z,12.40
2023-03-16T01:07:27.632Z,12.55
2023-03-16T01:09:55.091Z,14.15
2023-03-16T01:12:22.533Z,9.82
2023-03-16T01:14:51.347Z,10.35
2023-03-16T01:17:19.043Z,22.20
2023-03-16T01:19:46.938Z,7.97
2023-03-16T01:22:15.178Z,11.98
2023-03-16T01:24:45.221Z,10.55
2023-03-16T01:27:13.372Z,14.27
2023-03-16T01:29:43.764Z,12.10
2023-03-16T01:32:13.446Z,9.65
2023-03-16T01:34:41.612Z,13.75
2023-03-16T01:37:09.211Z,11.38
2023-03-16T01:39:36.633Z,9.68
2023-03-16T01:42:04.151Z,11.75
2023-03-16T01:44:52.884Z,8.52
2023-03-16T01:47:22.341Z,15.85
2023-03-16T01:49:51.206Z,13.10
2023-03-16T01:52:22.570Z,12.38
2023-03-16T01:54:52.065Z,11.98
2023-03-16T01:57:20.809Z,13.18
2023-03-16T01:59:50.208Z,11.02
2023-03-16T02:02:22.217Z,13.15
2023-03-16T02:04:52.965Z,9.57
2023-03-16T02:07:24.724Z,12.70
2023-03-16T02:09:54.537Z,8.43
2023-03-16T02:12:22.617Z,9.40
2023-03-16T02:14:51.744Z,16.15
2023-03-16T02:17:23.064Z,13.77
2023-03-16T02:19:56.248Z,10.05
2023-03-16T02:22:25.094Z,10.90
2023-03-16T02:24:52.888Z,15.43
2023-03-16T02:27:28.330Z,11.45
2023-03-16T02:30:04.888Z,13.35
2023-03-16T02:32:33.490Z,14.82
2023-03-16T02:37:43.538Z,9.50
2023-03-16T02:40:25.267Z,12.63
2023-03-16T02:42:56.427Z,7.95
2023-03-16T02:45:28.178Z,11.15
2023-03-16T02:50:22.878Z,14.32
2023-03-16T02:52:50.300Z,11.32
2023-03-16T02:55:17.772Z,10.10
2023-03-16T02:57:45.205Z,14.32
2023-03-16T03:00:16.893Z,12.45
2023-03-16T03:05:13.666Z,8.77
2023-03-16T03:07:41.152Z,18.17
2023-03-16T03:10:09.587Z,12.35
2023-03-16T03:12:37.091Z,14.60
2023-03-16T03:15:05.008Z,11.23
2023-03-16T03:17:32.518Z,10.27
2023-03-16T03:20:08.708Z,11.85
2023-03-16T03:22:36.147Z,8.18
2023-03-16T03:25:03.576Z,7.50
2023-03-16T03:27:31.035Z,6.03
2023-03-16T03:29:58.573Z,9.90
2023-03-16T03:32:26.151Z,12.45
2023-03-16T03:34:53.854Z,11.00
2023-03-16T03:37:22.721Z,9.90
2023-03-16T03:39:50.303Z,13.35
2023-03-16T03:42:17.777Z,13.25
2023-03-16T03:44:45.246Z,14.00
2023-03-16T03:47:12.715Z,10.25
2023-03-16T03:49:40.240Z,11.68
2023-03-16T03:52:07.713Z,6.65
2023-03-16T03:54:36.792Z,9.75
2023-03-16T03:57:04.434Z,8.88
2023-03-16T03:59:31.976Z,6.55
2023-03-16T04:01:59.633Z,10.55
2023-03-16T04:04:27.275Z,12.20
2023-03-16T04:06:54.670Z,9.80
2023-03-16T04:09:22.105Z,8.10
2023-03-16T04:11:50.901Z,16.98
2023-03-16T04:14:18.359Z,16.23
2023-03-16T04:16:45.852Z,15.40
2023-03-16T04:19:13.307Z,14.13
2023-03-16T04:21:40.729Z,12.73
2023-03-16T04:24:08.400Z,13.88
2023-03-16T04:26:35.899Z,11.55
2023-03-16T04:29:04.734Z,8.65
2023-03-16T04:31:32.308Z,10.70
2023-03-16T04:33:59.964Z,7.47
2023-03-16T04:36:27.441Z,6.53
2023-03-16T04:38:55.025Z,8.82
2023-03-16T04:41:22.508Z,8.75
2023-03-16T04:43:50.008Z,8.32
2023-03-16T04:46:18.910Z,8.43
2023-03-16T04:48:46.416Z,9.98
2023-03-16T04:51:13.849Z,8.65
2023-03-16T04:53:41.298Z,7.63
2023-03-16T04:56:09.552Z,8.60
2023-03-16T04:58:37.152Z,8.32
2023-03-16T05:01:04.641Z,12.02
2023-03-16T05:03:34.762Z,10.88
2023-03-16T05:06:02.323Z,9.48
2023-03-16T05:08:29.781Z,10.35
2023-03-16T05:10:57.834Z,8.95
2023-03-16T05:13:25.323Z,7.38
2023-03-16T05:15:53.902Z,7.72
2023-03-16T05:18:21.608Z,9.88
2023-03-16T05:20:52.355Z,9.82
2023-03-16T05:23:19.993Z,9.90
2023-03-16T05:25:47.825Z,9.65
2023-03-16T05:28:15.494Z,12.98
2023-03-16T05:30:43.107Z,16.58
2023-03-16T05:33:10.740Z,12.95
2023-03-16T05:35:38.782Z,14.88
2023-03-16T05:38:08.710Z,11.45
2023-03-16T05:40:54.606Z,14.40
2023-03-16T05:43:31.073Z,8.80
2023-03-16T05:45:59.330Z,13.77
2023-03-16T05:48:26.800Z,12.10
2023-03-16T05:50:54.575Z,11.43
2023-03-16T05:53:28.687Z,12.50
2023-03-16T05:55:56.218Z,11.73
2023-03-16T05:58:23.672Z,15.73
2023-03-16T06:00:51.135Z,8.88
2023-03-16T06:03:18.706Z,11.55
2023-03-16T06:05:46.173Z,14.40
2023-03-16T06:08:13.646Z,10.23
2023-03-16T06:10:42.450Z,10.50
2023-03-16T06:13:09.925Z,11.23
2023-03-16T06:15:37.361Z,9.48
2023-03-16T06:18:05.083Z,12.57
2023-03-16T06:20:32.542Z,14.65
2023-03-16T06:22:59.966Z,15.35
2023-03-16T06:25:27.425Z,12.23
2023-03-16T06:27:56.526Z,13.48
2023-03-16T06:30:23.953Z,14.40
2023-03-16T06:32:52.236Z,9.35
2023-03-16T06:35:19.992Z,8.63
2023-03-16T06:37:47.430Z,10.48
2023-03-16T06:40:14.941Z,6.13
2023-03-16T06:42:42.369Z,9.70
2023-03-16T06:45:13.036Z,12.50
2023-03-16T06:47:40.674Z,6.38
2023-03-16T06:50:09.538Z,9.45
2023-03-16T06:52:37.073Z,8.35
2023-03-16T06:55:05.348Z,8.65
2023-03-16T06:57:32.833Z,10.57
2023-03-16T07:00:00.736Z,8.32
2023-03-16T07:02:29.537Z,5.35
2023-03-16T07:04:57.042Z,10.27
2023-03-16T07:07:24.665Z,6.97
2023-03-16T07:09:52.135Z,8.95
2023-03-16T07:12:19.827Z,4.53
2023-03-16T07:14:50.735Z,3.75
2023-03-16T07:17:19.312Z,7.70
2023-03-16T07:19:48.122Z,4.75
2023-03-16T07:22:15.561Z,7.88
2023-03-16T07:24:44.152Z,9.25
2023-03-16T07:27:12.636Z,6.82
2023-03-16T07:29:40.189Z,7.32
2023-03-16T07:32:07.881Z,10.48
2023-03-16T07:34:35.441Z,4.53
2023-03-16T07:37:04.246Z,6.75
2023-03-16T07:39:31.712Z,6.22
2023-03-16T07:41:59.178Z,8.02
2023-03-16T07:44:26.633Z,5.75
2023-03-16T07:46:54.088Z,6.07
2023-03-16T07:49:21.880Z,6.47
2023-03-16T07:51:49.400Z,8.73
2023-03-16T07:54:18.265Z,3.83
2023-03-16T07:56:49.387Z,3.72
2023-03-16T07:59:18.776Z,7.82
2023-03-16T08:01:57.429Z,5.70
2023-03-16T08:04:25.073Z,8.77
2023-03-16T08:06:55.603Z,6.75
2023-03-16T08:09:24.398Z,7.28
2023-03-16T08:11:51.841Z,7.80
2023-03-16T08:14:19.305Z,9.02
2023-03-16T08:16:47.249Z,11.48
2023-03-16T08:19:14.823Z,9.75
2023-03-16T08:22:00.339Z,6.93
2023-03-16T08:24:31.177Z,11.38
2023-03-16T08:26:59.081Z,8.43
2023-03-16T08:29:27.191Z,8.48
2023-03-16T08:31:56.379Z,7.07
2023-03-16T08:34:24.402Z,12.10
2023-03-16T08:36:51.868Z,6.03
2023-03-16T08:39:19.374Z,6.72
2023-03-16T08:41:48.399Z,9.10
2023-03-16T08:44:15.838Z,6.85
2023-03-16T08:46:43.475Z,8.43
2023-03-16T08:49:11.041Z,9.73
2023-03-16T08:51:38.486Z,9.88
2023-03-16T08:54:06.150Z,9.48
2023-03-16T08:56:34.074Z,6.38
2023-03-16T08:59:03.692Z,8.82
2023-03-16T09:01:32.035Z,8.93
2023-03-16T09:04:00.590Z,12.70
2023-03-16T09:06:28.794Z,8.82
2023-03-16T09:08:57.361Z,7.70
2023-03-16T09:11:28.320Z,10.85
2023-03-16T09:13:55.834Z,13.07
2023-03-16T09:16:25.814Z,7.38
2023-03-16T09:18:53.559Z,9.57
2023-03-16T09:21:21.154Z,7.68
2023-03-16T09:23:49.019Z,7.70
2023-03-16T09:26:16.520Z,13.27
2023-03-16T09:28:44.098Z,7.55
2023-03-16T09:31:17.049Z,7.95
2023-03-16T09:33:46.388Z,6.55
2023-03-16T09:36:14.362Z,6.68
2023-03-16T09:38:42.318Z,7.07
2023-03-16T09:41:11.839Z,8.05
2023-03-16T09:43:49.335Z,8.00
2023-03-16T09:46:22.816Z,10.23
2023-03-16T09:48:51.612Z,6.70
2023-03-16T09:51:22.005Z,14.52
2023-03-16T09:53:51.466Z,11.73
2023-03-16T09:56:23.661Z,6.05
2023-03-16T09:58:51.095Z,7.80
2023-03-16T10:01:25.298Z,8.57
2023-03-16T10:04:10.377Z,8.27
2023-03-16T10:06:45.317Z,9.32
2023-03-16T10:09:22.811Z,7.38
2023-03-16T10:11:54.012Z,5.53
2023-03-16T10:14:24.829Z,6.25
2023-03-16T10:16:54.001Z,4.32
2023-03-16T10:19:33.422Z,6.03
2023-03-16T10:22:04.121Z,5.45
2023-03-16T10:24:39.461Z,6.82
2023-03-16T10:27:08.749Z,4.30
2023-03-16T10:29:38.712Z,7.75
2023-03-16T10:32:13.779Z,2.33
2023-03-16T10:34:44.399Z,3.78
2023-03-16T10:37:14.631Z,4.97
2023-03-16T10:39:43.797Z,4.25
2023-03-16T10:42:16.635Z,4.45
2023-03-16T10:44:45.166Z,6.70
2023-03-16T10:47:21.157Z,5.30
2023-03-16T10:49:51.370Z,3.22
2023-03-16T10:52:20.882Z,6.10
2023-03-16T10:54:50.733Z,8.07
2023-03-16T10:57:28.056Z,6.57
2023-03-16T10:59:57.649Z,5.75
2023-03-16T11:02:27.980Z,6.28
2023-03-16T11:04:57.539Z,9.20
2023-03-16T11:07:25.610Z,7.20
2023-03-16T11:09:53.565Z,7.82
2023-03-16T11:12:25.430Z,7.72
2023-03-16T11:17:25.196Z,4.85
2023-03-16T11:19:55.410Z,4.25
2023-03-16T11:22:25.483Z,2.95
2023-03-16T11:24:55.511Z,9.05
2023-03-16T11:27:26.197Z,4.97
2023-03-16T11:30:04.859Z,9.25
2023-03-16T11:32:36.110Z,5.15
2023-03-16T11:35:08.074Z,4.47
2023-03-16T11:40:22.636Z,7.00
2023-03-16T11:42:56.442Z,4.20
2023-03-16T11:45:29.939Z,5.43
2023-03-16T11:48:17.011Z,4.07
2023-03-16T11:50:51.704Z,3.78
2023-03-16T11:53:27.568Z,3.80
2023-03-16T11:56:03.981Z,4.18
2023-03-16T11:58:41.624Z,7.00
2023-03-16T12:01:13.268Z,7.78
2023-03-16T12:03:55.180Z,6.03
2023-03-16T12:06:29.694Z,8.70
2023-03-16T12:09:08.451Z,6.80
2023-03-16T12:11:41.032Z,5.80
2023-03-16T12:14:16.984Z,7.30
2023-03-16T12:16:49.927Z,5.85
2023-03-16T12:19:22.992Z,3.33
2023-03-16T12:22:01.125Z,3.28
2023-03-16T12:24:32.706Z,5.57
2023-03-16T12:27:00.854Z,1.83
2023-03-16T12:29:32.779Z,3.97
2023-03-16T12:32:04.950Z,4.95
2023-03-16T12:34:35.529Z,4.35
2023-03-16T12:37:13.299Z,3.65
2023-03-16T12:39:50.113Z,2.53
2023-03-16T12:42:37.263Z,2.63
2023-03-16T12:45:09.048Z,3.22
2023-03-16T12:47:43.915Z,5.63
2023-03-16T12:50:16.267Z,4.85
2023-03-16T12:52:48.248Z,6.38
2023-03-16T12:55:18.812Z,3.50
2023-03-16T12:57:49.011Z,4.15
2023-03-16T13:00:17.633Z,4.50
2023-03-16T13:02:46.850Z,2.58
2023-03-16T13:05:16.737Z,3.90
2023-03-16T13:07:48.605Z,1.88
2023-03-16T13:12:46.262Z,2.10
2023-03-16T13:15:27.473Z,4.82
2023-03-16T13:18:06.562Z,3.03
2023-03-16T13:20:35.707Z,7.72
2023-03-16T13:23:20.809Z,2.03
2023-03-16T13:26:01.367Z,3.67
2023-03-16T13:28:32.815Z,2.03
2023-03-16T13:31:01.695Z,3.72
2023-03-16T13:33:31.227Z,2.20
2023-03-16T13:36:00.399Z,3.70
2023-03-16T13:38:29.476Z,3.55
2023-03-16T13:40:59.899Z,3.33
2023-03-16T13:43:29.814Z,8.40
2023-03-16T13:45:57.427Z,11.18
2023-03-16T13:48:25.201Z,6.47
2023-03-16T13:50:53.205Z,3.75
2023-03-16T13:53:24.569Z,4.20
2023-03-16T13:55:54.681Z,7.30
2023-03-16T13:58:25.991Z,5.85
2023-03-16T14:00:58.526Z,3.42
2023-03-16T14:03:33.059Z,4.35
2023-03-16T14:06:01.820Z,4.82
2023-03-16T14:08:29.837Z,3.17
2023-03-16T14:11:01.070Z,4.10
2023-03-16T14:13:39.593Z,5.55
2023-03-16T14:16:13.787Z,5.43
2023-03-16T14:18:43.432Z,2.25
2023-03-16T14:21:15.398Z,5.93
2023-03-16T14:26:13.874Z,10.68
2023-03-16T14:28:43.512Z,2.15
2023-03-16T14:31:12.615Z,4.47
2023-03-16T14:33:42.698Z,4.60
2023-03-16T14:36:15.585Z,3.17
2023-03-16T14:38:44.383Z,5.28
2023-03-16T14:41:22.833Z,4.25
2023-03-16T14:43:53.242Z,2.80
2023-03-16T14:46:27.704Z,2.90
2023-03-16T14:49:01.871Z,2.55
2023-03-16T14:51:30.324Z,2.85
2023-03-16T14:53:57.857Z,2.10
2023-03-16T14:56:33.917Z,4.55
2023-03-16T14:59:02.734Z,2.88
2023-03-16T15:01:30.206Z,4.45
2023-03-16T15:03:58.009Z,3.58
2023-03-16T15:06:26.538Z,1.52
2023-03-16T15:08:54.661Z,3.50
2023-03-16T15:11:24.511Z,2.75
2023-03-16T15:14:04.084Z,2.50
2023-03-16T15:16:34.262Z,2.17
2023-03-16T15:19:01.806Z,2.63
2023-03-16T15:21:32.321Z,2.15
2023-03-16T15:23:59.776Z,3.35
2023-03-16T15:26:29.222Z,3.17
2023-03-16T15:28:57.949Z,6.40
2023-03-16T15:31:25.968Z,4.95
2023-03-16T15:33:55.092Z,3.72
2023-03-16T15:36:24.323Z,2.35
2023-03-16T15:38:54.254Z,2.75
2023-03-16T15:41:22.101Z,4.22
2023-03-16T15:43:52.022Z,5.50
2023-03-16T15:46:19.613Z,3.47
2023-03-16T15:48:47.693Z,3.95
2023-03-16T15:51:22.390Z,5.07
2023-03-16T15:53:51.240Z,4.82
2023-03-16T15:56:24.904Z,5.05
2023-03-16T15:58:52.766Z,3.08
2023-03-16T16:01:24.055Z,7.68
2023-03-16T16:03:51.827Z,2.78
2023-03-16T16:06:21.302Z,4.18
2023-03-16T16:08:49.041Z,4.30
2023-03-16T16:11:17.897Z,2.42
2023-03-16T16:13:45.845Z,3.13
2023-03-16T16:16:14.827Z,5.38
2023-03-16T16:18:42.451Z,3.42
2023-03-16T16:21:16.254Z,4.28
2023-03-16T16:23:45.195Z,3.88
2023-03-16T16:26:21.619Z,2.42
2023-03-16T16:28:49.129Z,3.65
2023-03-16T16:31:17.245Z,2.67
2023-03-16T16:33:45.040Z,2.47
2023-03-16T16:36:17.539Z,6.90
2023-03-16T16:38:46.420Z,3.05
2023-03-16T16:41:22.732Z,3.15
2023-03-16T16:43:51.048Z,5.95
2023-03-16T16:46:20.228Z,4.80
2023-03-16T16:48:49.387Z,4.93
2023-03-16T16:51:19.270Z,3.75
2023-03-16T16:53:48.640Z,6.53
2023-03-16T16:56:18.540Z,3.50
2023-03-16T16:58:46.621Z,2.75
2023-03-16T17:01:16.646Z,4.20
2023-03-16T17:03:44.167Z,3.10
2023-03-16T17:06:16.844Z,4.35
2023-03-16T17:08:44.805Z,3.40
2023-03-16T17:11:17.442Z,3.35
2023-03-16T17:13:46.880Z,3.42
2023-03-16T17:16:16.829Z,5.88
2023-03-16T17:18:44.825Z,7.35
2023-03-16T17:21:14.686Z,4.18
2023-03-16T17:23:42.112Z,5.93
2023-03-16T17:26:15.992Z,7.28
2023-03-16T17:28:46.468Z,5.50
2023-03-16T17:31:15.100Z,2.50
2023-03-16T17:33:42.580Z,4.32
2023-03-16T17:36:13.493Z,3.53
2023-03-16T17:38:41.653Z,3.47
2023-03-16T17:41:23.262Z,6.68
2023-03-16T17:43:51.313Z,4.60
2023-03-16T17:46:20.290Z,4.20
2023-03-16T17:48:48.317Z,3.88
2023-03-16T17:51:16.534Z,5.43
2023-03-16T17:53:44.396Z,6.32
2023-03-16T17:56:19.578Z,4.07
2023-03-16T17:58:51.169Z,4.32
2023-03-16T18:01:19.210Z,4.00
2023-03-16T18:03:46.842Z,5.05
2023-03-16T18:06:16.914Z,6.93
2023-03-16T18:08:46.209Z,5.03
2023-03-16T18:11:18.055Z,5.57
2023-03-16T18:13:46.715Z,5.82
2023-03-16T18:16:19.868Z,6.45
2023-03-16T18:18:47.743Z,9.05
2023-03-16T18:21:20.216Z,4.50
2023-03-16T18:23:47.845Z,6.47
2023-03-16T18:26:15.289Z,6.97
2023-03-16T18:28:43.835Z,7.82
2023-03-16T18:31:21.491Z,7.25
2023-03-16T18:33:50.885Z,7.05
2023-03-16T18:36:20.186Z,7.97
2023-03-16T18:38:51.052Z,6.10
2023-03-16T18:41:20.943Z,7.00
2023-03-16T18:43:48.506Z,5.43
2023-03-16T18:46:22.681Z,4.90
2023-03-16T18:48:50.575Z,8.88
2023-03-16T18:51:18.252Z,5.20
2023-03-16T18:53:45.803Z,4.38
2023-03-16T18:56:19.694Z,5.20
2023-03-16T18:58:47.715Z,4.97
2023-03-16T19:01:24.881Z,4.60
2023-03-16T19:03:53.415Z,5.20
2023-03-16T19:06:25.190Z,4.97
2023-03-16T19:08:52.909Z,6.00
2023-03-16T19:11:20.494Z,6.25
2023-03-16T19:13:47.979Z,4.20
2023-03-16T19:16:17.437Z,5.72
2023-03-16T19:18:45.667Z,4.80
2023-03-16T19:21:15.692Z,4.28
2023-03-16T19:23:43.230Z,6.43
2023-03-16T19:26:11.576Z,8.85
2023-03-16T19:28:40.914Z,6.38
2023-03-16T19:31:16.267Z,9.05
2023-03-16T19:33:43.945Z,7.10
2023-03-16T19:36:17.162Z,6.75
2023-03-16T19:38:46.249Z,6.65
2023-03-16T19:41:21.757Z,6.15
2023-03-16T19:43:49.317Z,5.65
2023-03-16T19:46:17.036Z,6.38
2023-03-16T19:48:44.907Z,5.38
2023-03-16T19:51:14.154Z,3.45
2023-03-16T19:53:43.430Z,5.35
2023-03-16T19:56:13.915Z,3.80
2023-03-16T19:58:42.822Z,10.52
2023-03-16T20:01:17.505Z,3.97
2023-03-16T20:03:46.425Z,6.28
2023-03-16T20:06:15.023Z,5.63
2023-03-16T20:08:44.292Z,3.92
2023-03-16T20:11:18.230Z,6.18
2023-03-16T20:13:46.836Z,6.20
2023-03-16T20:16:18.638Z,4.15
2023-03-16T20:21:16.838Z,3.28
2023-03-16T20:23:45.629Z,4.57
2023-03-16T20:26:17.416Z,6.60
2023-03-16T20:31:18.251Z,9.48
2023-03-16T20:33:47.616Z,5.05
2023-03-16T20:36:16.009Z,10.10
2023-03-16T20:38:44.916Z,12.77
2023-03-16T20:41:14.598Z,10.35
2023-03-16T20:43:42.343Z,11.35
2023-03-16T20:46:16.206Z,16.15
2023-03-16T20:48:43.847Z,8.50
2023-03-16T20:51:15.279Z,8.13
2023-03-16T20:53:44.877Z,4.97
2023-03-16T20:56:17.193Z,5.72
2023-03-16T20:58:46.920Z,6.55
2023-03-16T21:01:17.663Z,7.72
2023-03-16T21:03:47.404Z,6.85
2023-03-16T21:06:22.296Z,8.43
2023-03-16T21:08:52.512Z,7.57
2023-03-16T21:11:23.439Z,9.02
2023-03-16T21:13:51.349Z,5.17
2023-03-16T21:16:20.091Z,8.65
2023-03-16T21:18:47.762Z,6.43
2023-03-16T21:21:17.061Z,8.35
2023-03-16T21:23:44.915Z,4.55
2023-03-16T21:26:16.569Z,7.32
2023-03-16T21:28:45.050Z,7.70
2023-03-16T21:31:19.499Z,6.95
2023-03-16T21:33:48.291Z,6.60
2023-03-16T21:36:18.143Z,7.85
2023-03-16T21:38:46.768Z,11.65
2023-03-16T21:41:16.581Z,7.88
2023-03-16T21:43:44.752Z,7.68
2023-03-16T21:46:16.162Z,11.27
2023-03-16T21:48:44.585Z,10.75
2023-03-16T21:51:14.333Z,10.63
2023-03-16T21:53:42.318Z,8.98
2023-03-16T21:56:12.823Z,10.75
2023-03-16T21:58:41.626Z,9.68
2023-03-16T22:01:18.662Z,14.23
2023-03-16T22:03:50.978Z,11.10
2023-03-16T22:06:18.938Z,11.15
2023-03-16T22:08:46.461Z,9.52
2023-03-16T22:11:16.713Z,13.05
2023-03-16T22:13:46.389Z,9.88
2023-03-16T22:16:15.832Z,9.55
2023-03-16T22:18:43.917Z,18.33
2023-03-16T22:21:20.865Z,11.35
2023-03-16T22:23:48.392Z,11.15
2023-03-16T22:26:17.291Z,15.48
2023-03-16T22:28:46.605Z,9.88
2023-03-16T22:31:16.508Z,12.27
2023-03-16T22:33:46.586Z,11.63
2023-03-16T22:36:16.627Z,8.25
2023-03-16T22:38:44.608Z,9.82
2023-03-16T22:41:14.248Z,9.13
2023-03-16T22:43:43.483Z,11.45
2023-03-16T22:46:17.443Z,10.75
2023-03-16T22:48:44.965Z,6.05
2023-03-16T22:51:17.635Z,7.82
2023-03-16T22:53:46.813Z,10.85
2023-03-16T22:56:14.292Z,9.43
2023-03-16T22:58:42.983Z,8.95
2023-03-16T23:01:16.108Z,10.63
2023-03-16T23:03:44.181Z,10.20
2023-03-16T23:06:17.085Z,11.27
2023-03-16T23:08:44.568Z,8.07
2023-03-16T23:11:15.761Z,8.48
2023-03-16T23:13:43.297Z,13.73
2023-03-16T23:16:19.132Z,7.65
2023-03-16T23:18:46.780Z,11.15
2023-03-16T23:21:15.376Z,9.07
2023-03-16T23:23:46.191Z,10.85
2023-03-16T23:26:20.137Z,6.55
2023-03-16T23:28:48.201Z,9.00
2023-03-16T23:31:18.189Z,11.50
2023-03-16T23:33:46.373Z,8.20
2023-03-16T23:36:15.274Z,10.32
2023-03-16T23:38:43.410Z,9.65
2023-03-16T23:41:11.522Z,11.07
2023-03-16T23:43:39.396Z,8.15
2023-03-16T23:46:07.257Z,11.02
2023-03-16T23:48:36.525Z,6.15
2023-03-16T23:51:04.043Z,9.48
2023-03-16T23:53:31.508Z,7.80
2023-03-16T23:56:00.034Z,7.45
2023-03-16T23:58:27.683Z,9.63
